sensor_id;sensor_type;location;lat;lon;timestamp;P1;durP1;ratioP1;P2;durP2;ratioP2
14776;SDS011;7480;43.124;25.686;2022-10-17T00:00:39;8.27;;;4.63;;
14776;SDS011;7480;43.124;25.686;2022-10-17T00:03:06;7.27;;;4.57;;
14776;SDS011;7480;43.124;25.686;2022-10-17T00:05:33;10.97;;;5.10;;
14776;SDS011;7480;43.124;25.686;2022-10-17T00:08:00;7.70;;;3.97;;
14776;SDS011;7480;43.124;25.686;2022-10-17T00:10:26;3.97;;;3.47;;
14776;SDS011;7480;43.124;25.686;2022-10-17T00:12:53;4.57;;;3.80;;
14776;SDS011;7480;43.124;25.686;2022-10-17T00:15:20;4.93;;;3.23;;
14776;SDS011;7480;43.124;25.686;2022-10-17T00:17:47;4.10;;;2.67;;
14776;SDS011;7480;43.124;25.686;2022-10-17T00:20:14;4.13;;;3.13;;
14776;SDS011;7480;43.124;25.686;2022-10-17T00:22:41;5.47;;;3.27;;
14776;SDS011;7480;43.124;25.686;2022-10-17T00:25:08;5.70;;;3.47;;
14776;SDS011;7480;43.124;25.686;2022-10-17T00:27:36;5.83;;;3.80;;
14776;SDS011;7480;43.124;25.686;2022-10-17T00:30:04;4.73;;;3.10;;
14776;SDS011;7480;43.124;25.686;2022-10-17T00:32:32;7.67;;;2.63;;
14776;SDS011;7480;43.124;25.686;2022-10-17T00:34:58;3.20;;;2.53;;
14776;SDS011;7480;43.124;25.686;2022-10-17T00:37:25;4.07;;;3.03;;
14776;SDS011;7480;43.124;25.686;2022-10-17T00:39:52;2.83;;;2.57;;
14776;SDS011;7480;43.124;25.686;2022-10-17T00:42:19;4.47;;;3.33;;
14776;SDS011;7480;43.124;25.686;2022-10-17T00:47:14;6.73;;;3.00;;
14776;SDS011;7480;43.124;25.686;2022-10-17T00:49:42;4.57;;;2.80;;
14776;SDS011;7480;43.124;25.686;2022-10-17T00:52:12;4.83;;;3.13;;
14776;SDS011;7480;43.124;25.686;2022-10-17T00:54:45;4.53;;;3.07;;
14776;SDS011;7480;43.124;25.686;2022-10-17T00:57:14;3.87;;;2.93;;
14776;SDS011;7480;43.124;25.686;2022-10-17T00:59:42;6.53;;;3.83;;
14776;SDS011;7480;43.124;25.686;2022-10-17T01:02:11;6.57;;;4.60;;
14776;SDS011;7480;43.124;25.686;2022-10-17T01:04:40;5.77;;;3.40;;
14776;SDS011;7480;43.124;25.686;2022-10-17T01:07:08;5.20;;;3.13;;
14776;SDS011;7480;43.124;25.686;2022-10-17T01:09:35;3.10;;;2.40;;
14776;SDS011;7480;43.124;25.686;2022-10-17T01:12:16;3.30;;;2.47;;
14776;SDS011;7480;43.124;25.686;2022-10-17T01:17:42;3.27;;;1.90;;
14776;SDS011;7480;43.124;25.686;2022-10-17T01:20:34;3.20;;;2.70;;
14776;SDS011;7480;43.124;25.686;2022-10-17T01:31:48;3.03;;;2.77;;
14776;SDS011;7480;43.124;25.686;2022-10-17T01:37:09;4.10;;;2.87;;
14776;SDS011;7480;43.124;25.686;2022-10-17T01:42:29;4.50;;;2.60;;
14776;SDS011;7480;43.124;25.686;2022-10-17T01:45:02;6.00;;;3.27;;
14776;SDS011;7480;43.124;25.686;2022-10-17T01:47:35;7.17;;;4.90;;
14776;SDS011;7480;43.124;25.686;2022-10-17T01:50:13;5.10;;;3.67;;
14776;SDS011;7480;43.124;25.686;2022-10-17T01:52:47;8.57;;;3.73;;
14776;SDS011;7480;43.124;25.686;2022-10-17T01:55:17;6.40;;;4.10;;
14776;SDS011;7480;43.124;25.686;2022-10-17T01:57:50;4.47;;;2.60;;
14776;SDS011;7480;43.124;25.686;2022-10-17T02:00:21;8.37;;;3.93;;
14776;SDS011;7480;43.124;25.686;2022-10-17T02:02:51;5.90;;;3.30;;
14776;SDS011;7480;43.124;25.686;2022-10-17T02:05:25;11.50;;;6.00;;
14776;SDS011;7480;43.124;25.686;2022-10-17T02:07:56;15.93;;;7.93;;
14776;SDS011;7480;43.124;25.686;2022-10-17T02:10:38;13.33;;;5.90;;
14776;SDS011;7480;43.124;25.686;2022-10-17T02:24:19;3.70;;;2.63;;
14776;SDS011;7480;43.124;25.686;2022-10-17T02:27:04;4.37;;;2.60;;
14776;SDS011;7480;43.124;25.686;2022-10-17T02:29:35;3.33;;;2.60;;
14776;SDS011;7480;43.124;25.686;2022-10-17T02:32:18;4.10;;;3.03;;
14776;SDS011;7480;43.124;25.686;2022-10-17T02:34:49;3.77;;;2.03;;
14776;SDS011;7480;43.124;25.686;2022-10-17T02:37:18;10.23;;;3.23;;
14776;SDS011;7480;43.124;25.686;2022-10-17T02:39:54;4.88;;;2.52;;
14776;SDS011;7480;43.124;25.686;2022-10-17T02:42:23;3.67;;;2.97;;
14776;SDS011;7480;43.124;25.686;2022-10-17T02:44:50;4.13;;;2.50;;
14776;SDS011;7480;43.124;25.686;2022-10-17T02:47:20;5.97;;;2.40;;
14776;SDS011;7480;43.124;25.686;2022-10-17T02:49:49;4.37;;;3.57;;
14776;SDS011;7480;43.124;25.686;2022-10-17T02:55:00;3.70;;;2.57;;
14776;SDS011;7480;43.124;25.686;2022-10-17T03:00:03;6.23;;;3.17;;
14776;SDS011;7480;43.124;25.686;2022-10-17T03:02:49;3.10;;;2.60;;
14776;SDS011;7480;43.124;25.686;2022-10-17T03:05:18;4.77;;;2.13;;
14776;SDS011;7480;43.124;25.686;2022-10-17T03:07:46;4.67;;;3.07;;
14776;SDS011;7480;43.124;25.686;2022-10-17T03:10:12;6.43;;;2.60;;
14776;SDS011;7480;43.124;25.686;2022-10-17T03:12:39;3.77;;;2.97;;
14776;SDS011;7480;43.124;25.686;2022-10-17T03:15:06;4.50;;;3.10;;
14776;SDS011;7480;43.124;25.686;2022-10-17T03:17:34;4.53;;;3.60;;
14776;SDS011;7480;43.124;25.686;2022-10-17T03:20:01;7.90;;;3.63;;
14776;SDS011;7480;43.124;25.686;2022-10-17T03:22:28;10.27;;;4.37;;
14776;SDS011;7480;43.124;25.686;2022-10-17T03:24:55;7.20;;;4.50;;
14776;SDS011;7480;43.124;25.686;2022-10-17T03:27:21;5.07;;;4.37;;
14776;SDS011;7480;43.124;25.686;2022-10-17T03:29:48;5.13;;;4.07;;
14776;SDS011;7480;43.124;25.686;2022-10-17T03:32:15;3.83;;;3.00;;
14776;SDS011;7480;43.124;25.686;2022-10-17T03:34:41;5.20;;;3.00;;
14776;SDS011;7480;43.124;25.686;2022-10-17T03:37:08;7.67;;;4.40;;
14776;SDS011;7480;43.124;25.686;2022-10-17T03:39:34;5.87;;;3.67;;
14776;SDS011;7480;43.124;25.686;2022-10-17T03:42:01;4.97;;;3.20;;
14776;SDS011;7480;43.124;25.686;2022-10-17T03:44:28;5.60;;;2.87;;
14776;SDS011;7480;43.124;25.686;2022-10-17T03:46:54;12.87;;;3.17;;
14776;SDS011;7480;43.124;25.686;2022-10-17T03:49:22;6.47;;;4.10;;
14776;SDS011;7480;43.124;25.686;2022-10-17T03:51:49;5.47;;;4.47;;
14776;SDS011;7480;43.124;25.686;2022-10-17T03:54:15;7.97;;;3.33;;
14776;SDS011;7480;43.124;25.686;2022-10-17T03:56:42;6.23;;;3.60;;
14776;SDS011;7480;43.124;25.686;2022-10-17T03:59:12;6.70;;;4.13;;
14776;SDS011;7480;43.124;25.686;2022-10-17T04:01:39;7.30;;;4.10;;
14776;SDS011;7480;43.124;25.686;2022-10-17T04:04:07;7.77;;;4.03;;
14776;SDS011;7480;43.124;25.686;2022-10-17T04:06:34;6.73;;;3.00;;
14776;SDS011;7480;43.124;25.686;2022-10-17T04:09:01;5.50;;;3.10;;
14776;SDS011;7480;43.124;25.686;2022-10-17T04:11:28;8.47;;;2.93;;
14776;SDS011;7480;43.124;25.686;2022-10-17T04:13:55;3.93;;;2.13;;
14776;SDS011;7480;43.124;25.686;2022-10-17T04:16:22;4.33;;;3.10;;
14776;SDS011;7480;43.124;25.686;2022-10-17T04:18:53;4.53;;;2.47;;
14776;SDS011;7480;43.124;25.686;2022-10-17T04:21:21;5.87;;;3.17;;
14776;SDS011;7480;43.124;25.686;2022-10-17T04:23:53;11.13;;;4.17;;
14776;SDS011;7480;43.124;25.686;2022-10-17T04:26:20;8.20;;;4.27;;
14776;SDS011;7480;43.124;25.686;2022-10-17T04:28:47;10.73;;;3.97;;
14776;SDS011;7480;43.124;25.686;2022-10-17T04:31:14;8.23;;;3.20;;
14776;SDS011;7480;43.124;25.686;2022-10-17T04:33:41;4.97;;;3.80;;
14776;SDS011;7480;43.124;25.686;2022-10-17T04:36:11;4.43;;;2.80;;
14776;SDS011;7480;43.124;25.686;2022-10-17T04:38:39;2.97;;;2.57;;
14776;SDS011;7480;43.124;25.686;2022-10-17T04:41:07;7.80;;;3.50;;
14776;SDS011;7480;43.124;25.686;2022-10-17T04:43:36;4.40;;;2.27;;
14776;SDS011;7480;43.124;25.686;2022-10-17T04:46:05;4.17;;;2.87;;
14776;SDS011;7480;43.124;25.686;2022-10-17T04:48:33;5.20;;;3.47;;
14776;SDS011;7480;43.124;25.686;2022-10-17T04:51:04;9.43;;;4.73;;
14776;SDS011;7480;43.124;25.686;2022-10-17T04:53:36;11.77;;;3.90;;
14776;SDS011;7480;43.124;25.686;2022-10-17T04:56:22;8.43;;;3.87;;
14776;SDS011;7480;43.124;25.686;2022-10-17T04:58:50;12.50;;;4.97;;
14776;SDS011;7480;43.124;25.686;2022-10-17T05:01:18;9.00;;;5.87;;
14776;SDS011;7480;43.124;25.686;2022-10-17T05:03:46;11.33;;;7.10;;
14776;SDS011;7480;43.124;25.686;2022-10-17T05:06:14;12.53;;;7.00;;
14776;SDS011;7480;43.124;25.686;2022-10-17T05:08:45;13.40;;;6.13;;
14776;SDS011;7480;43.124;25.686;2022-10-17T05:11:15;11.80;;;7.03;;
14776;SDS011;7480;43.124;25.686;2022-10-17T05:13:59;10.30;;;6.67;;
14776;SDS011;7480;43.124;25.686;2022-10-17T05:16:27;14.53;;;7.33;;
14776;SDS011;7480;43.124;25.686;2022-10-17T05:18:55;13.37;;;8.33;;
14776;SDS011;7480;43.124;25.686;2022-10-17T05:21:23;16.87;;;8.30;;
14776;SDS011;7480;43.124;25.686;2022-10-17T05:23:50;12.50;;;7.73;;
14776;SDS011;7480;43.124;25.686;2022-10-17T05:26:17;14.33;;;8.97;;
14776;SDS011;7480;43.124;25.686;2022-10-17T05:28:44;16.53;;;9.43;;
14776;SDS011;7480;43.124;25.686;2022-10-17T05:31:10;15.47;;;8.10;;
14776;SDS011;7480;43.124;25.686;2022-10-17T05:33:38;16.17;;;7.10;;
14776;SDS011;7480;43.124;25.686;2022-10-17T05:36:05;10.30;;;6.70;;
14776;SDS011;7480;43.124;25.686;2022-10-17T05:38:32;10.37;;;6.33;;
14776;SDS011;7480;43.124;25.686;2022-10-17T05:41:00;10.33;;;5.97;;
14776;SDS011;7480;43.124;25.686;2022-10-17T05:43:27;21.50;;;7.60;;
14776;SDS011;7480;43.124;25.686;2022-10-17T05:45:54;9.80;;;6.07;;
14776;SDS011;7480;43.124;25.686;2022-10-17T05:48:21;8.60;;;5.83;;
14776;SDS011;7480;43.124;25.686;2022-10-17T05:50:49;13.37;;;5.93;;
14776;SDS011;7480;43.124;25.686;2022-10-17T05:53:15;12.13;;;5.83;;
14776;SDS011;7480;43.124;25.686;2022-10-17T05:55:42;18.33;;;6.90;;
14776;SDS011;7480;43.124;25.686;2022-10-17T05:58:09;13.07;;;6.97;;
14776;SDS011;7480;43.124;25.686;2022-10-17T06:00:47;11.80;;;6.97;;
14776;SDS011;7480;43.124;25.686;2022-10-17T06:03:14;11.70;;;6.90;;
14776;SDS011;7480;43.124;25.686;2022-10-17T06:05:40;12.57;;;7.03;;
14776;SDS011;7480;43.124;25.686;2022-10-17T06:08:07;17.13;;;6.80;;
14776;SDS011;7480;43.124;25.686;2022-10-17T06:10:34;9.67;;;7.43;;
14776;SDS011;7480;43.124;25.686;2022-10-17T06:13:00;9.80;;;7.80;;
14776;SDS011;7480;43.124;25.686;2022-10-17T06:15:27;10.10;;;7.63;;
14776;SDS011;7480;43.124;25.686;2022-10-17T06:17:53;11.10;;;7.63;;
14776;SDS011;7480;43.124;25.686;2022-10-17T06:20:20;18.00;;;8.37;;
14776;SDS011;7480;43.124;25.686;2022-10-17T06:22:58;13.57;;;7.10;;
14776;SDS011;7480;43.124;25.686;2022-10-17T06:25:24;16.20;;;9.77;;
14776;SDS011;7480;43.124;25.686;2022-10-17T06:27:51;18.30;;;7.83;;
14776;SDS011;7480;43.124;25.686;2022-10-17T06:30:18;11.10;;;7.13;;
14776;SDS011;7480;43.124;25.686;2022-10-17T06:32:45;12.87;;;7.73;;
14776;SDS011;7480;43.124;25.686;2022-10-17T06:35:11;6.93;;;5.67;;
14776;SDS011;7480;43.124;25.686;2022-10-17T06:37:38;12.13;;;8.77;;
14776;SDS011;7480;43.124;25.686;2022-10-17T06:40:05;12.80;;;6.73;;
14776;SDS011;7480;43.124;25.686;2022-10-17T06:42:34;9.67;;;6.37;;
14776;SDS011;7480;43.124;25.686;2022-10-17T06:45:00;9.67;;;4.57;;
14776;SDS011;7480;43.124;25.686;2022-10-17T06:47:27;12.37;;;4.53;;
14776;SDS011;7480;43.124;25.686;2022-10-17T06:49:54;6.03;;;4.37;;
14776;SDS011;7480;43.124;25.686;2022-10-17T06:52:20;7.03;;;4.40;;
14776;SDS011;7480;43.124;25.686;2022-10-17T06:54:47;6.07;;;4.30;;
14776;SDS011;7480;43.124;25.686;2022-10-17T06:57:13;6.80;;;4.33;;
14776;SDS011;7480;43.124;25.686;2022-10-17T06:59:40;11.20;;;4.57;;
14776;SDS011;7480;43.124;25.686;2022-10-17T07:02:07;4.33;;;3.57;;
14776;SDS011;7480;43.124;25.686;2022-10-17T07:04:35;8.10;;;5.30;;
14776;SDS011;7480;43.124;25.686;2022-10-17T07:07:01;7.17;;;5.03;;
14776;SDS011;7480;43.124;25.686;2022-10-17T07:09:29;10.13;;;4.40;;
14776;SDS011;7480;43.124;25.686;2022-10-17T07:11:56;9.57;;;4.90;;
14776;SDS011;7480;43.124;25.686;2022-10-17T07:14:23;7.93;;;5.40;;
14776;SDS011;7480;43.124;25.686;2022-10-17T07:16:57;9.20;;;4.17;;
14776;SDS011;7480;43.124;25.686;2022-10-17T07:19:24;9.40;;;4.77;;
14776;SDS011;7480;43.124;25.686;2022-10-17T07:21:52;6.30;;;4.73;;
14776;SDS011;7480;43.124;25.686;2022-10-17T07:24:19;4.10;;;3.47;;
14776;SDS011;7480;43.124;25.686;2022-10-17T07:26:46;5.07;;;3.97;;
14776;SDS011;7480;43.124;25.686;2022-10-17T07:29:12;4.17;;;3.23;;
14776;SDS011;7480;43.124;25.686;2022-10-17T07:31:39;8.93;;;4.33;;
14776;SDS011;7480;43.124;25.686;2022-10-17T07:34:05;5.82;;;3.85;;
14776;SDS011;7480;43.124;25.686;2022-10-17T07:36:32;9.73;;;4.53;;
14776;SDS011;7480;43.124;25.686;2022-10-17T07:38:59;5.97;;;4.27;;
14776;SDS011;7480;43.124;25.686;2022-10-17T07:41:25;4.77;;;3.23;;
14776;SDS011;7480;43.124;25.686;2022-10-17T07:43:53;8.77;;;3.83;;
14776;SDS011;7480;43.124;25.686;2022-10-17T07:46:19;5.30;;;4.13;;
14776;SDS011;7480;43.124;25.686;2022-10-17T07:48:46;5.30;;;3.83;;
14776;SDS011;7480;43.124;25.686;2022-10-17T07:51:12;4.30;;;3.33;;
14776;SDS011;7480;43.124;25.686;2022-10-17T07:53:39;3.17;;;2.83;;
14776;SDS011;7480;43.124;25.686;2022-10-17T07:56:10;4.37;;;3.00;;
14776;SDS011;7480;43.124;25.686;2022-10-17T07:58:37;5.37;;;4.10;;
14776;SDS011;7480;43.124;25.686;2022-10-17T08:01:05;3.70;;;3.00;;
14776;SDS011;7480;43.124;25.686;2022-10-17T08:08:35;4.57;;;2.53;;
14776;SDS011;7480;43.124;25.686;2022-10-17T08:11:04;3.47;;;3.00;;
14776;SDS011;7480;43.124;25.686;2022-10-17T08:13:31;5.07;;;3.20;;
14776;SDS011;7480;43.124;25.686;2022-10-17T08:15:59;2.97;;;2.63;;
14776;SDS011;7480;43.124;25.686;2022-10-17T08:18:30;8.50;;;4.03;;
14776;SDS011;7480;43.124;25.686;2022-10-17T08:21:00;3.80;;;2.63;;
14776;SDS011;7480;43.124;25.686;2022-10-17T08:23:31;3.43;;;3.10;;
14776;SDS011;7480;43.124;25.686;2022-10-17T08:26:00;5.28;;;3.03;;
14776;SDS011;7480;43.124;25.686;2022-10-17T08:28:28;3.97;;;2.90;;
14776;SDS011;7480;43.124;25.686;2022-10-17T08:31:02;3.87;;;2.83;;
14776;SDS011;7480;43.124;25.686;2022-10-17T08:33:33;6.27;;;3.63;;
14776;SDS011;7480;43.124;25.686;2022-10-17T08:36:00;6.83;;;4.00;;
14776;SDS011;7480;43.124;25.686;2022-10-17T08:38:28;4.30;;;2.80;;
14776;SDS011;7480;43.124;25.686;2022-10-17T08:41:01;5.13;;;3.20;;
14776;SDS011;7480;43.124;25.686;2022-10-17T08:46:29;4.33;;;3.50;;
14776;SDS011;7480;43.124;25.686;2022-10-17T08:48:57;5.00;;;2.80;;
14776;SDS011;7480;43.124;25.686;2022-10-17T08:51:25;4.77;;;2.93;;
14776;SDS011;7480;43.124;25.686;2022-10-17T08:53:56;3.53;;;2.50;;
14776;SDS011;7480;43.124;25.686;2022-10-17T08:56:27;4.63;;;3.17;;
14776;SDS011;7480;43.124;25.686;2022-10-17T09:18:02;3.10;;;2.73;;
14776;SDS011;7480;43.124;25.686;2022-10-17T09:20:59;3.30;;;2.43;;
14776;SDS011;7480;43.124;25.686;2022-10-17T09:23:52;4.40;;;2.13;;
14776;SDS011;7480;43.124;25.686;2022-10-17T09:26:34;5.03;;;2.60;;
14776;SDS011;7480;43.124;25.686;2022-10-17T09:29:01;4.17;;;2.90;;
14776;SDS011;7480;43.124;25.686;2022-10-17T09:31:37;4.53;;;2.23;;
14776;SDS011;7480;43.124;25.686;2022-10-17T09:34:07;3.93;;;2.37;;
14776;SDS011;7480;43.124;25.686;2022-10-17T16:31:21;37.65;;;18.40;;
14776;SDS011;7480;43.124;25.686;2022-10-17T18:04:34;7.60;;;3.27;;
14776;SDS011;7480;43.124;25.686;2022-10-17T18:07:00;6.63;;;5.13;;
14776;SDS011;7480;43.124;25.686;2022-10-17T18:09:27;6.17;;;3.17;;
14776;SDS011;7480;43.124;25.686;2022-10-17T18:11:53;10.77;;;4.87;;
14776;SDS011;7480;43.124;25.686;2022-10-17T18:14:20;6.30;;;3.50;;
14776;SDS011;7480;43.124;25.686;2022-10-17T18:16:49;3.43;;;3.00;;
14776;SDS011;7480;43.124;25.686;2022-10-17T18:19:15;6.47;;;4.23;;
14776;SDS011;7480;43.124;25.686;2022-10-17T18:21:42;5.03;;;3.57;;
14776;SDS011;7480;43.124;25.686;2022-10-17T18:24:09;5.20;;;2.93;;
14776;SDS011;7480;43.124;25.686;2022-10-17T18:26:36;4.03;;;3.10;;
14776;SDS011;7480;43.124;25.686;2022-10-17T18:29:02;4.63;;;2.37;;
14776;SDS011;7480;43.124;25.686;2022-10-17T18:31:29;2.83;;;2.00;;
14776;SDS011;7480;43.124;25.686;2022-10-17T18:34:01;4.63;;;2.70;;
14776;SDS011;7480;43.124;25.686;2022-10-17T18:36:28;4.30;;;2.97;;
14776;SDS011;7480;43.124;25.686;2022-10-17T18:38:56;5.27;;;3.63;;
14776;SDS011;7480;43.124;25.686;2022-10-17T18:41:24;4.10;;;2.47;;
14776;SDS011;7480;43.124;25.686;2022-10-17T18:43:52;6.43;;;2.93;;
14776;SDS011;7480;43.124;25.686;2022-10-17T18:46:20;3.90;;;3.17;;
14776;SDS011;7480;43.124;25.686;2022-10-17T18:48:48;8.03;;;5.43;;
14776;SDS011;7480;43.124;25.686;2022-10-17T18:51:17;9.00;;;5.07;;
14776;SDS011;7480;43.124;25.686;2022-10-17T18:53:46;3.97;;;2.93;;
14776;SDS011;7480;43.124;25.686;2022-10-17T18:56:14;4.33;;;2.50;;
14776;SDS011;7480;43.124;25.686;2022-10-17T18:58:42;3.93;;;3.00;;
14776;SDS011;7480;43.124;25.686;2022-10-17T19:01:10;2.63;;;2.33;;
14776;SDS011;7480;43.124;25.686;2022-10-17T19:03:41;6.33;;;3.00;;
14776;SDS011;7480;43.124;25.686;2022-10-17T19:06:09;2.67;;;1.97;;
14776;SDS011;7480;43.124;25.686;2022-10-17T19:08:37;2.17;;;1.97;;
14776;SDS011;7480;43.124;25.686;2022-10-17T19:11:13;4.83;;;2.10;;
14776;SDS011;7480;43.124;25.686;2022-10-17T19:13:42;4.13;;;2.60;;
14776;SDS011;7480;43.124;25.686;2022-10-17T19:16:16;2.77;;;2.23;;
14776;SDS011;7480;43.124;25.686;2022-10-17T19:18:47;11.07;;;6.50;;
14776;SDS011;7480;43.124;25.686;2022-10-17T19:21:15;17.33;;;7.27;;
14776;SDS011;7480;43.124;25.686;2022-10-17T19:23:58;3.87;;;3.00;;
14776;SDS011;7480;43.124;25.686;2022-10-17T19:26:28;3.80;;;2.43;;
14776;SDS011;7480;43.124;25.686;2022-10-17T19:28:57;1.87;;;1.77;;
14776;SDS011;7480;43.124;25.686;2022-10-17T19:31:26;3.73;;;2.50;;
14776;SDS011;7480;43.124;25.686;2022-10-17T19:33:54;2.60;;;2.37;;
14776;SDS011;7480;43.124;25.686;2022-10-17T19:41:18;4.47;;;2.33;;
14776;SDS011;7480;43.124;25.686;2022-10-17T19:43:45;4.00;;;2.23;;
14776;SDS011;7480;43.124;25.686;2022-10-17T19:46:16;6.70;;;2.83;;
14776;SDS011;7480;43.124;25.686;2022-10-17T19:48:44;11.07;;;3.90;;
14776;SDS011;7480;43.124;25.686;2022-10-17T19:51:11;9.70;;;3.63;;
14776;SDS011;7480;43.124;25.686;2022-10-17T19:58:34;6.20;;;2.97;;
14776;SDS011;7480;43.124;25.686;2022-10-17T20:01:14;5.73;;;4.27;;
14776;SDS011;7480;43.124;25.686;2022-10-17T20:03:45;6.90;;;2.80;;
14776;SDS011;7480;43.124;25.686;2022-10-17T20:06:12;5.00;;;2.57;;
14776;SDS011;7480;43.124;25.686;2022-10-17T20:08:40;4.20;;;1.90;;
14776;SDS011;7480;43.124;25.686;2022-10-17T20:11:08;2.53;;;2.33;;
14776;SDS011;7480;43.124;25.686;2022-10-17T20:13:37;4.70;;;2.67;;
14776;SDS011;7480;43.124;25.686;2022-10-17T20:16:04;9.10;;;3.37;;
14776;SDS011;7480;43.124;25.686;2022-10-17T20:18:32;20.47;;;6.73;;
14776;SDS011;7480;43.124;25.686;2022-10-17T20:21:03;29.73;;;8.30;;
14776;SDS011;7480;43.124;25.686;2022-10-17T20:23:31;33.83;;;7.63;;
14776;SDS011;7480;43.124;25.686;2022-10-17T20:26:03;25.70;;;6.20;;
14776;SDS011;7480;43.124;25.686;2022-10-17T20:28:55;34.77;;;8.50;;
14776;SDS011;7480;43.124;25.686;2022-10-17T20:31:23;28.60;;;6.87;;
14776;SDS011;7480;43.124;25.686;2022-10-17T20:33:55;3.53;;;1.90;;
14776;SDS011;7480;43.124;25.686;2022-10-17T20:36:22;4.47;;;2.47;;
14776;SDS011;7480;43.124;25.686;2022-10-17T20:38:53;9.70;;;3.80;;
14776;SDS011;7480;43.124;25.686;2022-10-17T20:41:21;2.87;;;2.17;;
14776;SDS011;7480;43.124;25.686;2022-10-17T20:43:51;6.53;;;2.53;;
14776;SDS011;7480;43.124;25.686;2022-10-17T20:46:19;19.57;;;7.33;;
14776;SDS011;7480;43.124;25.686;2022-10-17T20:49:01;18.40;;;7.90;;
14776;SDS011;7480;43.124;25.686;2022-10-17T20:51:28;8.87;;;3.97;;
14776;SDS011;7480;43.124;25.686;2022-10-17T20:53:54;8.47;;;4.93;;
14776;SDS011;7480;43.124;25.686;2022-10-17T20:56:27;4.83;;;2.87;;
14776;SDS011;7480;43.124;25.686;2022-10-17T20:58:56;5.30;;;3.07;;
14776;SDS011;7480;43.124;25.686;2022-10-17T21:01:24;8.13;;;2.90;;
14776;SDS011;7480;43.124;25.686;2022-10-17T21:03:52;4.27;;;2.10;;
14776;SDS011;7480;43.124;25.686;2022-10-17T21:06:19;10.07;;;4.60;;
14776;SDS011;7480;43.124;25.686;2022-10-17T21:08:46;5.13;;;2.47;;
14776;SDS011;7480;43.124;25.686;2022-10-17T21:13:41;9.87;;;3.93;;
14776;SDS011;7480;43.124;25.686;2022-10-17T21:16:26;9.17;;;4.53;;
14776;SDS011;7480;43.124;25.686;2022-10-17T21:18:54;7.90;;;4.40;;
14776;SDS011;7480;43.124;25.686;2022-10-17T21:55:50;13.80;;;4.63;;
14776;SDS011;7480;43.124;25.686;2022-10-17T21:58:17;7.03;;;3.83;;
14776;SDS011;7480;43.124;25.686;2022-10-17T22:00:44;8.70;;;5.73;;
14776;SDS011;7480;43.124;25.686;2022-10-17T22:03:11;7.47;;;4.37;;
14776;SDS011;7480;43.124;25.686;2022-10-17T22:05:40;6.13;;;3.10;;
14776;SDS011;7480;43.124;25.686;2022-10-17T22:08:06;11.10;;;4.90;;
14776;SDS011;7480;43.124;25.686;2022-10-17T22:10:36;10.93;;;4.53;;
14776;SDS011;7480;43.124;25.686;2022-10-17T22:13:03;9.77;;;4.97;;
14776;SDS011;7480;43.124;25.686;2022-10-17T22:15:30;7.73;;;3.70;;
14776;SDS011;7480;43.124;25.686;2022-10-17T22:17:56;5.67;;;3.53;;
14776;SDS011;7480;43.124;25.686;2022-10-17T22:20:23;4.60;;;2.67;;
14776;SDS011;7480;43.124;25.686;2022-10-17T22:22:49;8.20;;;3.70;;
14776;SDS011;7480;43.124;25.686;2022-10-17T22:25:16;9.33;;;5.17;;
14776;SDS011;7480;43.124;25.686;2022-10-17T22:27:43;6.77;;;4.30;;
14776;SDS011;7480;43.124;25.686;2022-10-17T22:30:09;10.90;;;4.43;;
14776;SDS011;7480;43.124;25.686;2022-10-17T22:32:36;7.43;;;3.57;;
14776;SDS011;7480;43.124;25.686;2022-10-17T22:35:03;6.00;;;3.53;;
14776;SDS011;7480;43.124;25.686;2022-10-17T22:37:30;4.77;;;3.30;;
14776;SDS011;7480;43.124;25.686;2022-10-17T22:39:57;8.97;;;5.00;;
14776;SDS011;7480;43.124;25.686;2022-10-17T22:42:23;8.13;;;4.53;;
14776;SDS011;7480;43.124;25.686;2022-10-17T22:44:50;8.10;;;5.13;;
14776;SDS011;7480;43.124;25.686;2022-10-17T22:47:17;6.73;;;3.93;;
14776;SDS011;7480;43.124;25.686;2022-10-17T22:49:43;6.00;;;3.97;;
14776;SDS011;7480;43.124;25.686;2022-10-17T22:52:10;8.53;;;4.13;;
14776;SDS011;7480;43.124;25.686;2022-10-17T22:54:37;8.27;;;5.50;;
14776;SDS011;7480;43.124;25.686;2022-10-17T22:57:03;6.00;;;3.90;;
14776;SDS011;7480;43.124;25.686;2022-10-17T22:59:30;6.03;;;3.70;;
14776;SDS011;7480;43.124;25.686;2022-10-17T23:01:56;8.83;;;4.43;;
14776;SDS011;7480;43.124;25.686;2022-10-17T23:04:23;9.53;;;3.47;;
14776;SDS011;7480;43.124;25.686;2022-10-17T23:06:50;4.47;;;3.03;;
14776;SDS011;7480;43.124;25.686;2022-10-17T23:09:16;5.87;;;2.83;;
14776;SDS011;7480;43.124;25.686;2022-10-17T23:11:43;3.17;;;2.73;;
14776;SDS011;7480;43.124;25.686;2022-10-17T23:14:09;5.03;;;3.13;;
14776;SDS011;7480;43.124;25.686;2022-10-17T23:16:36;4.83;;;2.67;;
14776;SDS011;7480;43.124;25.686;2022-10-17T23:19:03;4.50;;;3.17;;
14776;SDS011;7480;43.124;25.686;2022-10-17T23:21:29;5.53;;;3.60;;
14776;SDS011;7480;43.124;25.686;2022-10-17T23:24:06;11.77;;;4.37;;
14776;SDS011;7480;43.124;25.686;2022-10-17T23:26:32;14.00;;;5.03;;
14776;SDS011;7480;43.124;25.686;2022-10-17T23:28:59;9.70;;;4.20;;
14776;SDS011;7480;43.124;25.686;2022-10-17T23:31:25;8.80;;;3.37;;
14776;SDS011;7480;43.124;25.686;2022-10-17T23:33:52;4.87;;;2.23;;
14776;SDS011;7480;43.124;25.686;2022-10-17T23:36:19;5.77;;;2.60;;
14776;SDS011;7480;43.124;25.686;2022-10-17T23:38:46;3.67;;;3.07;;
14776;SDS011;7480;43.124;25.686;2022-10-17T23:41:14;4.30;;;2.57;;
14776;SDS011;7480;43.124;25.686;2022-10-17T23:43:41;9.97;;;3.23;;
14776;SDS011;7480;43.124;25.686;2022-10-17T23:46:08;3.20;;;2.73;;
14776;SDS011;7480;43.124;25.686;2022-10-17T23:48:35;3.50;;;2.73;;
14776;SDS011;7480;43.124;25.686;2022-10-17T23:51:04;4.03;;;2.43;;
14776;SDS011;7480;43.124;25.686;2022-10-17T23:53:31;5.30;;;2.93;;
14776;SDS011;7480;43.124;25.686;2022-10-17T23:55:57;4.73;;;2.70;;
14776;SDS011;7480;43.124;25.686;2022-10-17T23:58:24;3.87;;;2.97;;
